Time;durP1;ratioP1;P1;durP2;ratioP2;P2;SDS_P1;SDS_P2;PMS_P1;PMS_P2;Temp;Humidity;BMP_temperature;BMP_pressure;BME280_temperature;BME280_humidity;BME280_pressure;Samples;Min_cycle;Max_cycle;Signal;HPM_P1;HPM_P2
2023/04/28 00:00:08;;;;;;;7.27;6.10;;;6.70;99.90;;;;;;4824598;29;20652;-58
2023/04/28 00:02:36;;;;;;;7.50;5.80;;;6.80;99.90;;;;;;4823682;29;20236;-57
2023/04/28 00:05:05;;;;;;;7.43;6.57;;;6.70;99.90;;;;;;4824279;29;20299;-58
2023/04/28 00:07:33;;;;;;;9.03;6.77;;;6.70;99.90;;;;;;4824049;29;20702;-58
2023/04/28 00:10:02;;;;;;;7.57;6.77;;;6.70;99.90;;;;;;4822952;29;20243;-58
2023/04/28 00:12:30;;;;;;;7.50;6.77;;;6.60;99.90;;;;;;4822555;29;20230;-58
2023/04/28 00:14:58;;;;;;;7.83;6.40;;;6.60;99.90;;;;;;4806062;29;20697;-58
2023/04/28 00:17:27;;;;;;;8.97;7.63;;;6.60;99.90;;;;;;4821850;29;20239;-58
2023/04/28 00:19:56;;;;;;;8.57;7.10;;;6.60;99.90;;;;;;4828925;29;20322;-58
2023/04/28 00:22:24;;;;;;;9.47;7.53;;;6.40;99.90;;;;;;4823922;29;20762;-57
2023/04/28 00:24:52;;;;;;;10.50;7.47;;;6.40;99.90;;;;;;4823530;29;20243;-58
2023/04/28 00:27:23;;;;;;;8.63;7.50;;;6.40;99.90;;;;;;4824020;29;20753;-58
2023/04/28 00:29:51;;;;;;;8.27;7.33;;;6.40;99.90;;;;;;4823991;29;20697;-58
2023/04/28 00:32:20;;;;;;;11.57;8.07;;;6.30;99.90;;;;;;4837329;29;20577;-58
2023/04/28 00:34:50;;;;;;;7.33;6.57;;;6.10;99.90;;;;;;4805369;29;20252;-58
2023/04/28 00:37:18;;;;;;;7.97;6.13;;;6.20;99.90;;;;;;4804515;29;20241;-58
2023/04/28 00:39:49;;;;;;;10.47;8.13;;;6.30;99.90;;;;;;4805495;29;20234;-58
2023/04/28 00:42:19;;;;;;;10.50;7.70;;;6.10;99.90;;;;;;4805752;29;20724;-58
2023/04/28 00:44:47;;;;;;;8.23;6.87;;;6.20;99.90;;;;;;4805573;29;20229;-59
2023/04/28 00:47:18;;;;;;;8.70;7.80;;;6.10;99.90;;;;;;4818764;29;20235;-58
2023/04/28 00:49:49;;;;;;;9.27;7.40;;;6.10;99.90;;;;;;4829339;29;20232;-59
2023/04/28 00:52:17;;;;;;;9.20;7.57;;;6.20;99.90;;;;;;4823688;29;20227;-59
2023/04/28 00:54:47;;;;;;;7.83;7.03;;;6.30;99.90;;;;;;4822697;29;20796;-58
2023/04/28 00:57:15;;;;;;;10.27;8.10;;;6.20;99.90;;;;;;4823432;29;20224;-58
2023/04/28 00:59:43;;;;;;;9.80;6.90;;;6.00;99.90;;;;;;4823465;29;20316;-58
2023/04/28 01:02:16;;;;;;;8.20;6.80;;;5.90;99.90;;;;;;4837297;29;20243;-56
2023/04/28 01:04:45;;;;;;;6.53;5.50;;;5.80;99.90;;;;;;4815358;29;20231;-58
2023/04/28 01:07:16;;;;;;;7.10;6.40;;;5.80;99.90;;;;;;4840369;29;20228;-58
2023/04/28 01:09:46;;;;;;;5.63;5.10;;;5.70;99.90;;;;;;4842363;29;20325;-59
2023/04/28 01:12:18;;;;;;;8.67;6.43;;;5.80;99.90;;;;;;4844021;29;20239;-59
2023/04/28 01:14:50;;;;;;;6.40;5.80;;;5.80;99.90;;;;;;4808732;29;20229;-58
2023/04/28 01:17:18;;;;;;;6.53;5.80;;;5.80;99.90;;;;;;4822775;29;20227;-59
2023/04/28 01:19:47;;;;;;;6.17;5.50;;;5.70;99.90;;;;;;4831334;29;20280;-58
2023/04/28 01:22:17;;;;;;;8.37;6.27;;;5.70;99.90;;;;;;4833171;29;20227;-58
2023/04/28 01:24:47;;;;;;;6.10;5.43;;;5.70;99.90;;;;;;4826332;29;20246;-58
2023/04/28 01:27:15;;;;;;;7.30;6.60;;;5.80;99.90;;;;;;4826490;29;20685;-58
2023/04/28 01:29:44;;;;;;;8.07;6.67;;;5.70;99.90;;;;;;4826475;29;20772;-58
2023/04/28 01:32:13;;;;;;;8.50;6.93;;;5.60;99.90;;;;;;4840360;29;20293;-59
2023/04/28 01:34:41;;;;;;;7.70;6.37;;;5.50;99.90;;;;;;4811282;29;20788;-58
2023/04/28 01:37:09;;;;;;;7.70;6.27;;;5.60;99.90;;;;;;4824806;29;20236;-59
2023/04/28 01:39:37;;;;;;;8.83;7.30;;;5.60;99.90;;;;;;4826314;29;20596;-58
2023/04/28 01:42:07;;;;;;;9.43;8.13;;;5.60;99.90;;;;;;4841825;29;20253;-58
2023/04/28 01:44:35;;;;;;;10.57;8.53;;;5.60;99.90;;;;;;4812909;29;20232;-59
2023/04/28 01:47:03;;;;;;;11.90;8.33;;;5.40;99.90;;;;;;4819451;29;20242;-58
2023/04/28 01:49:31;;;;;;;10.80;7.70;;;5.40;99.90;;;;;;4834000;29;20239;-58
2023/04/28 01:51:59;;;;;;;10.10;7.60;;;5.30;99.90;;;;;;4826334;29;20276;-58
2023/04/28 01:54:28;;;;;;;9.37;6.90;;;5.20;99.90;;;;;;4825978;29;20766;-59
2023/04/28 01:56:56;;;;;;;8.77;6.50;;;5.10;99.90;;;;;;4824018;29;20771;-57
2023/04/28 01:59:26;;;;;;;7.50;6.53;;;5.10;99.90;;;;;;4824930;29;20326;-59
2023/04/28 02:01:54;;;;;;;7.97;6.30;;;5.10;99.90;;;;;;4824509;29;20650;-58
2023/04/28 02:04:23;;;;;;;7.10;6.40;;;4.90;99.90;;;;;;4811677;29;20305;-59
2023/04/28 02:06:51;;;;;;;8.37;6.50;;;4.90;99.90;;;;;;4811323;29;20242;-58
2023/04/28 02:09:20;;;;;;;7.13;6.27;;;4.90;99.90;;;;;;4824776;29;20235;-59
2023/04/28 02:11:48;;;;;;;7.17;6.47;;;4.80;99.90;;;;;;4824577;29;20261;-58
2023/04/28 02:14:16;;;;;;;7.10;6.30;;;4.90;99.90;;;;;;4825715;29;20232;-58
2023/04/28 02:16:46;;;;;;;6.63;5.93;;;4.80;99.90;;;;;;4825499;29;21289;-58
2023/04/28 02:19:15;;;;;;;10.10;7.40;;;4.80;99.90;;;;;;4835925;29;20231;-58
2023/04/28 02:21:43;;;;;;;9.33;7.53;;;4.80;99.90;;;;;;4825378;29;20224;-58
2023/04/28 02:24:11;;;;;;;13.90;9.93;;;4.90;99.90;;;;;;4825487;29;20228;-58
2023/04/28 02:26:40;;;;;;;10.80;7.83;;;4.90;99.90;;;;;;4824776;29;20228;-58
2023/04/28 02:29:08;;;;;;;10.83;8.40;;;5.00;99.90;;;;;;4825666;29;20235;-57
2023/04/28 02:31:36;;;;;;;11.03;8.77;;;4.90;99.90;;;;;;4825257;29;20254;-58
2023/04/28 02:34:05;;;;;;;9.87;8.60;;;4.90;99.90;;;;;;4825282;29;20232;-58
2023/04/28 02:36:33;;;;;;;10.60;7.87;;;4.90;99.90;;;;;;4825507;29;20248;-58
2023/04/28 02:39:01;;;;;;;10.30;8.57;;;4.80;99.90;;;;;;4824308;29;20255;-58
2023/04/28 02:41:30;;;;;;;10.67;8.47;;;4.90;99.90;;;;;;4820859;29;20228;-58
2023/04/28 02:43:58;;;;;;;12.27;8.67;;;4.90;99.90;;;;;;4806097;29;20254;-58
2023/04/28 02:46:26;;;;;;;12.80;9.83;;;5.00;99.90;;;;;;4808568;29;20241;-58
2023/04/28 02:48:55;;;;;;;13.80;10.83;;;5.00;99.90;;;;;;4835081;29;20236;-58
2023/04/28 02:51:25;;;;;;;13.57;11.73;;;4.90;99.90;;;;;;4825192;29;20314;-58
2023/04/28 02:53:53;;;;;;;16.70;13.20;;;5.00;99.90;;;;;;4824485;29;20735;-57
2023/04/28 02:56:23;;;;;;;18.87;14.20;;;5.00;99.90;;;;;;4824010;29;20237;-58
2023/04/28 02:58:51;;;;;;;17.47;12.87;;;5.00;99.90;;;;;;4823893;29;20281;-58
2023/04/28 03:01:19;;;;;;;18.63;13.17;;;5.00;99.90;;;;;;4830212;29;20240;-58
2023/04/28 03:03:47;;;;;;;19.77;13.47;;;5.00;99.90;;;;;;4805605;29;20248;-58
2023/04/28 03:06:15;;;;;;;21.30;14.93;;;5.10;99.90;;;;;;4806247;29;20256;-57
2023/04/28 03:08:45;;;;;;;19.47;14.60;;;5.10;99.90;;;;;;4806767;29;20228;-58
2023/04/28 03:11:13;;;;;;;15.60;12.00;;;5.10;99.90;;;;;;4812219;29;20734;-58
2023/04/28 03:13:41;;;;;;;19.60;12.83;;;5.20;99.90;;;;;;4823555;29;20231;-58
2023/04/28 03:16:09;;;;;;;17.73;13.63;;;5.30;99.90;;;;;;4823859;29;20246;-57
2023/04/28 03:18:37;;;;;;;18.20;14.17;;;5.10;99.90;;;;;;4832165;29;20225;-59
2023/04/28 03:21:06;;;;;;;19.63;13.87;;;5.10;99.90;;;;;;4827005;29;20224;-59
2023/04/28 03:23:34;;;;;;;21.33;14.97;;;5.20;99.90;;;;;;4824018;29;20239;-58
2023/04/28 03:26:04;;;;;;;20.40;14.10;;;5.10;99.90;;;;;;4825433;29;20273;-58
2023/04/28 03:28:32;;;;;;;19.27;13.73;;;5.20;99.90;;;;;;4824544;29;20642;-59
2023/04/28 03:31:01;;;;;;;17.20;13.07;;;5.10;99.90;;;;;;4831965;29;20240;-58
2023/04/28 03:33:29;;;;;;;21.07;14.37;;;5.10;99.90;;;;;;4814364;29;20231;-59
2023/04/28 03:35:59;;;;;;;19.13;14.60;;;5.10;99.90;;;;;;4826190;29;20305;-58
2023/04/28 03:38:27;;;;;;;20.60;16.10;;;5.00;99.90;;;;;;4838159;29;20468;-58
2023/04/28 03:40:55;;;;;;;18.57;14.37;;;5.00;99.90;;;;;;4838764;29;20676;-58
2023/04/28 03:43:43;;;;;;;17.70;13.57;;;5.10;99.90;;;;;;4813032;29;20251;-58
2023/04/28 03:46:22;;;;;;;18.47;12.90;;;5.10;99.90;;;;;;4806893;29;20240;-58
2023/04/28 03:48:50;;;;;;;22.73;15.37;;;5.10;99.90;;;;;;4832009;29;20335;-58
2023/04/28 03:51:19;;;;;;;18.30;13.97;;;5.10;99.90;;;;;;4820999;29;20651;-58
2023/04/28 03:53:47;;;;;;;19.43;14.70;;;5.20;99.90;;;;;;4821223;29;20260;-58
2023/04/28 03:56:16;;;;;;;18.60;13.80;;;5.10;99.90;;;;;;4824567;29;20618;-58
2023/04/28 03:58:45;;;;;;;19.17;13.23;;;5.00;99.90;;;;;;4823042;29;20688;-58
2023/04/28 04:01:13;;;;;;;21.37;13.60;;;5.10;99.90;;;;;;4823900;29;20241;-57
2023/04/28 04:03:41;;;;;;;19.30;13.27;;;5.10;99.90;;;;;;4824109;29;20228;-58
2023/04/28 04:06:10;;;;;;;19.17;13.77;;;5.10;99.90;;;;;;4823012;29;20246;-58
2023/04/28 04:08:38;;;;;;;17.03;12.40;;;5.10;99.90;;;;;;4822864;29;20231;-58
2023/04/28 04:11:06;;;;;;;16.33;13.43;;;5.20;99.90;;;;;;4822934;29;20545;-58
2023/04/28 04:13:35;;;;;;;19.23;12.47;;;5.10;99.90;;;;;;4818325;29;20289;-59
2023/04/28 04:16:08;;;;;;;16.77;12.47;;;5.10;99.90;;;;;;4804549;29;20240;-58
2023/04/28 04:18:36;;;;;;;14.23;11.30;;;5.20;99.90;;;;;;4832297;29;20648;-58
2023/04/28 04:21:31;;;;;;;15.97;11.90;;;5.10;99.90;;;;;;4809630;29;20657;-58
2023/04/28 04:24:00;;;;;;;15.87;12.27;;;5.10;99.90;;;;;;4822765;29;20236;-58
2023/04/28 04:26:28;;;;;;;14.77;11.97;;;5.10;99.90;;;;;;4822637;29;20235;-58
2023/04/28 04:28:56;;;;;;;13.43;10.57;;;5.20;99.90;;;;;;4808406;29;20232;-58
2023/04/28 04:31:25;;;;;;;14.00;11.57;;;5.20;99.90;;;;;;4803960;29;20490;-58
2023/04/28 04:33:54;;;;;;;15.83;11.13;;;5.20;99.90;;;;;;4804360;29;20232;-58
2023/04/28 04:36:22;;;;;;;14.17;10.37;;;5.30;99.90;;;;;;4804313;29;20282;-58
2023/04/28 04:38:50;;;;;;;13.33;9.50;;;5.30;99.90;;;;;;4804351;29;20705;-58
2023/04/28 04:41:22;;;;;;;15.07;10.30;;;5.40;99.90;;;;;;4804322;29;20486;-58
2023/04/28 04:43:58;;;;;;;13.10;10.00;;;5.40;99.90;;;;;;4806704;29;20601;-58
2023/04/28 04:46:32;;;;;;;14.53;9.37;;;5.40;99.90;;;;;;4826057;29;20650;-58
2023/04/28 04:49:00;;;;;;;12.17;9.37;;;5.40;99.90;;;;;;4836481;29;20597;-57
2023/04/28 04:51:28;;;;;;;11.57;9.17;;;5.50;99.90;;;;;;4826519;29;20219;-57
2023/04/28 04:53:56;;;;;;;12.83;9.23;;;5.50;99.90;;;;;;4827265;29;20682;-56
2023/04/28 04:56:24;;;;;;;12.47;8.77;;;5.60;99.90;;;;;;4838091;29;20311;-58
2023/04/28 04:58:53;;;;;;;11.30;9.00;;;5.50;99.90;;;;;;4825941;29;20318;-58
2023/04/28 05:01:46;;;;;;;11.13;8.43;;;5.60;99.90;;;;;;4830324;29;20387;-59
2023/04/28 05:04:15;;;;;;;9.83;8.50;;;5.70;99.90;;;;;;4845438;29;20718;-58
2023/04/28 05:06:45;;;;;;;11.77;8.70;;;5.70;99.90;;;;;;4830184;29;20705;-58
2023/04/28 05:09:13;;;;;;;12.03;8.43;;;5.70;99.90;;;;;;4825404;29;20704;-59
2023/04/28 05:11:41;;;;;;;12.67;8.67;;;5.80;99.90;;;;;;4825394;29;20236;-58
2023/04/28 05:14:09;;;;;;;11.53;8.27;;;5.80;99.90;;;;;;4826931;29;20307;-58
2023/04/28 05:16:39;;;;;;;11.63;7.93;;;5.80;99.90;;;;;;4825501;29;20279;-58
2023/04/28 05:19:12;;;;;;;10.47;8.53;;;5.90;99.90;;;;;;4835121;29;20231;-58
2023/04/28 05:21:40;;;;;;;11.00;8.57;;;6.00;99.90;;;;;;4826650;29;20227;-58
2023/04/28 05:24:08;;;;;;;12.37;8.57;;;6.10;99.90;;;;;;4824629;29;20236;-58
2023/04/28 05:26:36;;;;;;;9.67;7.97;;;6.20;99.90;;;;;;4824014;29;20747;-58
2023/04/28 05:29:08;;;;;;;11.67;8.40;;;6.30;99.90;;;;;;4824596;29;20314;-58
2023/04/28 05:31:36;;;;;;;13.17;7.77;;;6.40;99.90;;;;;;4823557;29;20236;-58
2023/04/28 05:34:05;;;;;;;12.60;8.83;;;6.50;99.90;;;;;;4820581;29;20224;-58
2023/04/28 05:36:34;;;;;;;12.90;7.67;;;6.60;99.90;;;;;;4817455;29;20335;-58
2023/04/28 05:39:03;;;;;;;10.87;7.97;;;6.70;99.90;;;;;;4825827;29;20792;-58
2023/04/28 05:41:31;;;;;;;9.43;7.93;;;6.90;99.90;;;;;;4824578;29;20255;-58
2023/04/28 05:43:59;;;;;;;10.27;7.47;;;7.00;99.90;;;;;;4825500;29;20228;-59
2023/04/28 05:46:27;;;;;;;9.87;8.10;;;7.10;99.90;;;;;;4826327;29;20712;-58
2023/04/28 05:49:00;;;;;;;9.83;7.43;;;7.20;99.90;;;;;;4831367;29;20235;-59
2023/04/28 05:51:34;;;;;;;9.20;7.63;;;7.40;99.90;;;;;;4824881;29;20592;-58
2023/04/28 05:54:04;;;;;;;10.37;6.93;;;7.50;99.90;;;;;;4824865;29;20369;-58
2023/04/28 05:56:37;;;;;;;8.00;7.00;;;7.50;99.90;;;;;;4820367;29;20743;-58
2023/04/28 05:59:05;;;;;;;10.17;7.23;;;7.60;99.90;;;;;;4819002;29;20330;-58
2023/04/28 06:01:33;;;;;;;8.23;7.00;;;7.70;99.90;;;;;;4825282;29;20232;-58
2023/04/28 06:04:02;;;;;;;10.93;6.73;;;7.80;99.90;;;;;;4824223;29;20296;-59
2023/04/28 06:06:31;;;;;;;8.50;6.37;;;7.90;99.90;;;;;;4824419;29;20571;-58
2023/04/28 06:09:01;;;;;;;10.53;6.77;;;8.10;99.90;;;;;;4824655;29;20319;-59
2023/04/28 06:11:30;;;;;;;8.93;6.50;;;8.30;99.90;;;;;;4825586;29;20311;-58
2023/04/28 06:13:58;;;;;;;7.60;6.13;;;8.30;99.90;;;;;;4825368;29;20236;-58
2023/04/28 06:16:26;;;;;;;10.17;6.30;;;8.50;99.90;;;;;;4840277;29;20338;-58
2023/04/28 06:18:55;;;;;;;8.70;5.83;;;8.50;99.90;;;;;;4829146;29;20233;-58
2023/04/28 06:21:23;;;;;;;9.53;6.00;;;8.60;99.90;;;;;;4831358;29;20238;-58
2023/04/28 06:23:51;;;;;;;6.57;5.60;;;8.70;99.90;;;;;;4842649;29;20236;-59
2023/04/28 06:26:21;;;;;;;9.33;6.07;;;8.80;99.90;;;;;;4837111;29;20259;-59
2023/04/28 06:28:49;;;;;;;8.60;5.63;;;8.80;99.90;;;;;;4824152;29;20281;-58
2023/04/28 06:31:17;;;;;;;9.63;5.53;;;9.00;99.90;;;;;;4823711;29;20251;-58
2023/04/28 06:33:46;;;;;;;7.67;5.70;;;9.00;99.90;;;;;;4824333;29;20248;-58
2023/04/28 06:36:16;;;;;;;9.67;5.97;;;9.00;99.90;;;;;;4825384;29;20268;-59
2023/04/28 06:38:45;;;;;;;7.07;5.90;;;9.20;99.90;;;;;;4825413;29;20239;-58
2023/04/28 06:41:13;;;;;;;6.77;5.43;;;9.30;99.90;;;;;;4820842;29;20778;-59
2023/04/28 06:43:45;;;;;;;6.30;5.70;;;9.40;99.90;;;;;;4826195;29;20316;-59
2023/04/28 06:46:30;;;;;;;6.90;5.57;;;9.40;99.90;;;;;;4823030;29;20317;-58
2023/04/28 06:48:58;;;;;;;7.53;5.70;;;9.90;99.90;;;;;;4830232;29;20237;-58
2023/04/28 06:51:27;;;;;;;6.93;5.70;;;10.20;99.90;;;;;;4827437;29;20655;-58
2023/04/28 06:53:56;;;;;;;6.53;5.40;;;10.50;99.90;;;;;;4823845;29;20337;-58
2023/04/28 06:56:24;;;;;;;7.83;5.30;;;10.40;99.90;;;;;;4825075;29;20238;-59
2023/04/28 06:58:55;;;;;;;5.97;5.27;;;10.50;99.90;;;;;;4825558;29;20236;-58
2023/04/28 07:01:23;;;;;;;8.33;5.30;;;10.70;99.90;;;;;;4824913;29;20242;-58
2023/04/28 07:03:52;;;;;;;7.50;5.07;;;10.90;99.90;;;;;;4826434;29;20238;-58
2023/04/28 07:06:20;;;;;;;6.53;5.07;;;11.10;99.90;;;;;;4842922;29;20717;-59
2023/04/28 07:08:48;;;;;;;6.40;5.37;;;11.30;99.90;;;;;;4843609;29;20236;-58
2023/04/28 07:11:16;;;;;;;5.77;4.97;;;11.40;99.90;;;;;;4844401;29;20236;-58
2023/04/28 07:13:48;;;;;;;7.57;5.27;;;11.40;99.90;;;;;;4843553;29;20579;-59
2023/04/28 07:16:17;;;;;;;7.93;4.90;;;11.60;99.90;;;;;;4829976;29;20299;-56
2023/04/28 07:18:46;;;;;;;5.27;4.50;;;11.60;99.90;;;;;;4819957;29;20242;-58
2023/04/28 07:21:14;;;;;;;5.87;4.70;;;11.70;99.90;;;;;;4816228;29;20749;-58
2023/04/28 07:23:42;;;;;;;6.37;4.97;;;11.50;99.90;;;;;;4816522;29;20316;-58
2023/04/28 07:26:10;;;;;;;6.63;5.10;;;11.50;99.90;;;;;;4814160;29;20784;-58
2023/04/28 07:28:41;;;;;;;7.97;4.57;;;11.30;99.90;;;;;;4813903;29;20263;-58
2023/04/28 07:31:10;;;;;;;6.67;4.80;;;11.20;99.90;;;;;;4813673;29;20295;-58
2023/04/28 07:33:40;;;;;;;6.43;4.87;;;11.10;99.90;;;;;;4814105;29;20624;-57
2023/04/28 07:36:08;;;;;;;7.13;5.00;;;11.00;99.90;;;;;;4811249;29;20249;-58
2023/04/28 07:38:36;;;;;;;7.10;4.90;;;11.00;99.90;;;;;;4812269;29;20235;-58
2023/04/28 07:41:05;;;;;;;6.93;4.70;;;11.00;99.90;;;;;;4813779;29;20243;-55
2023/04/28 07:43:38;;;;;;;5.63;4.93;;;11.10;99.90;;;;;;4814061;29;20324;-55
2023/04/28 07:46:07;;;;;;;5.87;4.37;;;11.10;99.90;;;;;;4813970;29;20237;-55
2023/04/28 07:48:35;;;;;;;8.30;4.63;;;11.30;99.90;;;;;;4828932;29;20231;-58
2023/04/28 07:51:05;;;;;;;5.57;4.20;;;11.40;99.90;;;;;;4814087;29;20719;-58
2023/04/28 07:53:33;;;;;;;8.00;4.67;;;11.60;99.90;;;;;;4812831;29;20234;-58
2023/04/28 07:56:01;;;;;;;7.47;4.80;;;11.70;99.90;;;;;;4811800;29;20711;-58
2023/04/28 07:58:29;;;;;;;6.13;4.33;;;11.70;99.90;;;;;;4814044;29;21511;-58
2023/04/28 08:00:57;;;;;;;6.40;4.00;;;11.90;99.90;;;;;;4814083;29;21050;-57
2023/04/28 08:03:25;;;;;;;6.93;4.33;;;12.00;99.90;;;;;;4813291;29;20242;-57
2023/04/28 08:05:54;;;;;;;5.77;4.70;;;12.00;99.90;;;;;;4812228;29;20778;-57
2023/04/28 08:08:31;;;;;;;7.30;4.20;;;12.00;99.90;;;;;;4814453;29;20243;-54
2023/04/28 08:10:59;;;;;;;6.60;4.47;;;11.90;99.90;;;;;;4814180;29;21270;-58
2023/04/28 08:13:28;;;;;;;5.13;4.40;;;11.90;99.90;;;;;;4815727;29;20711;-58
2023/04/28 08:15:56;;;;;;;6.07;4.50;;;12.10;99.90;;;;;;4813195;29;21211;-55
2023/04/28 08:18:25;;;;;;;8.30;4.53;;;12.10;99.90;;;;;;4812276;29;20334;-58
2023/04/28 08:20:53;;;;;;;9.17;4.80;;;12.20;99.90;;;;;;4813130;29;20261;-58
2023/04/28 08:23:21;;;;;;;8.83;4.53;;;12.20;99.90;;;;;;4813219;29;20243;-57
2023/04/28 08:25:51;;;;;;;5.17;4.37;;;12.20;99.90;;;;;;4811432;29;20321;-58
2023/04/28 08:28:20;;;;;;;8.13;5.30;;;12.40;99.90;;;;;;4814022;29;20250;-58
2023/04/28 08:30:48;;;;;;;6.67;5.03;;;12.60;99.90;;;;;;4812727;29;20261;-55
2023/04/28 08:33:16;;;;;;;9.40;5.27;;;12.70;99.90;;;;;;4813287;29;20235;-58
2023/04/28 08:35:44;;;;;;;7.80;4.87;;;12.60;99.90;;;;;;4811307;29;20291;-59
2023/04/28 08:38:14;;;;;;;8.17;5.50;;;12.60;99.90;;;;;;4812479;29;20245;-57
2023/04/28 08:40:42;;;;;;;8.07;5.40;;;12.60;99.90;;;;;;4813875;29;20232;-58
2023/04/28 08:43:12;;;;;;;8.63;4.90;;;12.70;99.90;;;;;;4815193;29;20739;-58
2023/04/28 08:45:43;;;;;;;8.53;4.80;;;13.00;99.90;;;;;;4813822;29;20240;-57
2023/04/28 08:48:21;;;;;;;9.10;5.10;;;13.00;99.90;;;;;;4813202;29;20307;-58
2023/04/28 08:50:52;;;;;;;6.67;5.20;;;13.20;99.90;;;;;;4812565;29;20898;-58
2023/04/28 08:53:24;;;;;;;7.50;5.03;;;13.20;99.90;;;;;;4813006;29;20243;-58
2023/04/28 08:55:55;;;;;;;8.23;5.07;;;13.40;99.90;;;;;;4810048;29;20243;-57
2023/04/28 08:58:26;;;;;;;9.83;5.10;;;13.40;99.90;;;;;;4812272;29;20258;-57
2023/04/28 09:00:54;;;;;;;9.00;5.47;;;13.50;99.90;;;;;;4814761;29;20282;-58
2023/04/28 09:03:22;;;;;;;9.87;5.10;;;13.60;99.90;;;;;;4815151;29;20243;-56
2023/04/28 09:05:51;;;;;;;7.13;5.27;;;13.50;99.90;;;;;;4812484;29;20313;-56
2023/04/28 09:08:19;;;;;;;8.40;4.73;;;13.50;99.90;;;;;;4812206;29;20629;-57
2023/04/28 09:10:47;;;;;;;8.70;5.00;;;13.90;99.90;;;;;;4812907;29;20232;-58
2023/04/28 09:13:26;;;;;;;10.57;5.70;;;13.90;99.90;;;;;;4812810;29;20250;-57
2023/04/28 09:16:00;;;;;;;6.40;5.20;;;13.70;99.90;;;;;;4810580;29;21400;-58
2023/04/28 09:18:29;;;;;;;7.33;4.83;;;13.80;99.90;;;;;;4811020;29;20239;-58
2023/04/28 09:21:04;;;;;;;8.50;5.27;;;13.90;99.90;;;;;;4812890;29;20240;-58
2023/04/28 09:23:33;;;;;;;5.73;5.10;;;13.70;99.90;;;;;;4813750;29;20796;-58
2023/04/28 09:26:03;;;;;;;6.57;4.90;;;13.90;99.90;;;;;;4813319;29;20492;-57
2023/04/28 09:28:33;;;;;;;7.73;5.77;;;14.00;99.90;;;;;;4814107;29;20596;-56
2023/04/28 09:31:02;;;;;;;8.93;5.60;;;13.80;99.90;;;;;;4817220;29;20853;-57
2023/04/28 09:33:30;;;;;;;11.67;5.83;;;13.80;99.90;;;;;;4818576;29;20723;-58
2023/04/28 09:35:58;;;;;;;9.67;5.67;;;13.80;99.90;;;;;;4816562;29;20342;-58
2023/04/28 09:38:27;;;;;;;8.13;5.43;;;13.80;99.90;;;;;;4817573;29;20735;-58
2023/04/28 09:40:57;;;;;;;8.13;5.30;;;13.70;99.90;;;;;;4816932;29;20577;-57
2023/04/28 09:43:27;;;;;;;9.63;5.90;;;13.80;99.90;;;;;;4817270;29;20247;-56
2023/04/28 09:45:59;;;;;;;8.80;5.90;;;13.60;99.90;;;;;;4814599;29;20914;-58
2023/04/28 09:48:32;;;;;;;7.63;6.17;;;13.50;99.90;;;;;;4814375;29;20232;-58
2023/04/28 09:51:02;;;;;;;7.63;5.47;;;13.50;99.90;;;;;;4815853;29;20707;-58
2023/04/28 09:53:31;;;;;;;9.93;5.77;;;13.70;99.90;;;;;;4815351;29;20235;-58
2023/04/28 09:56:03;;;;;;;7.70;5.50;;;13.80;99.90;;;;;;4813241;29;20246;-58
2023/04/28 09:58:34;;;;;;;9.83;6.60;;;13.70;99.90;;;;;;4816003;29;20243;-58
2023/04/28 10:01:06;;;;;;;9.90;6.27;;;13.60;99.90;;;;;;4817608;29;20240;-58
2023/04/28 10:03:34;;;;;;;10.47;5.90;;;13.70;99.90;;;;;;4817204;29;20243;-58
2023/04/28 10:06:03;;;;;;;8.47;5.90;;;13.80;99.90;;;;;;4816356;29;20236;-57
2023/04/28 10:08:32;;;;;;;9.27;5.70;;;13.80;99.90;;;;;;4817964;29;21056;-57
2023/04/28 10:11:01;;;;;;;8.73;5.93;;;14.20;99.90;;;;;;4814876;29;20247;-55
2023/04/28 10:13:29;;;;;;;9.07;5.87;;;14.40;99.90;;;;;;4815690;29;20287;-55
2023/04/28 10:15:57;;;;;;;9.20;5.60;;;14.60;99.90;;;;;;4813275;29;20231;-58
2023/04/28 10:18:28;;;;;;;7.57;5.50;;;14.60;99.90;;;;;;4814960;29;20327;-58
2023/04/28 10:21:01;;;;;;;8.67;5.80;;;14.50;99.90;;;;;;4814952;29;20235;-58
2023/04/28 10:24:03;;;;;;;7.47;5.30;;;14.50;99.90;;;;;;4817410;29;20244;-58
2023/04/28 10:26:58;;;;;;;10.77;5.93;;;14.40;99.90;;;;;;4813986;29;20306;-57
2023/04/28 10:29:27;;;;;;;8.40;5.70;;;14.30;99.90;;;;;;4816801;29;20319;-57
2023/04/28 10:32:15;;;;;;;10.07;5.80;;;14.20;99.90;;;;;;4817177;29;20630;-55
2023/04/28 10:34:44;;;;;;;10.40;5.57;;;14.40;99.90;;;;;;4817265;29;20240;-58
2023/04/28 10:37:14;;;;;;;10.83;5.70;;;14.30;99.90;;;;;;4813859;29;21098;-57
2023/04/28 10:40:15;;;;;;;10.60;5.60;;;14.40;99.90;;;;;;4813941;29;20704;-57
2023/04/28 10:42:53;;;;;;;8.63;6.00;;;14.30;99.90;;;;;;4806472;29;20242;-57
2023/04/28 10:45:59;;;;;;;9.13;6.17;;;14.20;99.90;;;;;;4814570;29;20248;-56
2023/04/28 10:48:54;;;;;;;8.37;5.67;;;14.10;99.90;;;;;;4814440;29;20704;-58
2023/04/28 10:51:28;;;;;;;7.67;5.40;;;14.20;99.90;;;;;;4815463;29;20330;-58
2023/04/28 10:54:16;;;;;;;10.37;5.93;;;14.20;99.90;;;;;;4815110;29;20608;-57
2023/04/28 10:57:22;;;;;;;10.67;6.00;;;14.20;99.90;;;;;;4814714;29;20748;-58
2023/04/28 10:59:50;;;;;;;12.27;6.10;;;14.30;99.90;;;;;;4813625;29;20231;-57
2023/04/28 11:02:49;;;;;;;9.23;5.83;;;14.30;99.90;;;;;;4813961;29;20240;-58
2023/04/28 11:05:20;;;;;;;9.87;6.63;;;14.40;99.90;;;;;;4814582;29;20240;-58
2023/04/28 11:08:32;;;;;;;11.87;6.03;;;14.50;99.90;;;;;;4812274;29;20592;-57
2023/04/28 11:11:21;;;;;;;8.80;6.23;;;14.60;99.90;;;;;;4814507;29;20280;-57
2023/04/28 11:13:50;;;;;;;9.87;6.03;;;14.50;99.90;;;;;;4815608;29;20277;-58
2023/04/28 11:16:21;;;;;;;9.47;6.27;;;14.60;99.90;;;;;;4814773;29;20236;-59
2023/04/28 11:18:55;;;;;;;10.97;6.23;;;14.80;99.90;;;;;;4816724;29;20244;-58
2023/04/28 11:21:25;;;;;;;9.70;6.27;;;14.90;99.90;;;;;;4815483;29;21140;-58
2023/04/28 11:23:53;;;;;;;10.10;6.17;;;14.80;99.90;;;;;;4816487;29;20304;-56
2023/04/28 11:26:23;;;;;;;9.57;5.93;;;14.70;99.90;;;;;;4811732;29;20899;-57
2023/04/28 11:28:53;;;;;;;8.60;5.80;;;14.60;99.90;;;;;;4813987;29;20247;-57
2023/04/28 11:31:23;;;;;;;12.43;6.20;;;14.50;99.90;;;;;;4813583;29;20259;-57
2023/04/28 11:33:58;;;;;;;10.77;6.37;;;14.60;99.90;;;;;;4813894;29;20245;-57
2023/04/28 11:36:29;;;;;;;8.27;6.60;;;14.80;99.90;;;;;;4811492;29;20720;-57
2023/04/28 11:38:57;;;;;;;9.27;6.37;;;14.80;99.90;;;;;;4815705;29;20772;-58
2023/04/28 11:41:27;;;;;;;8.93;6.43;;;14.80;99.90;;;;;;4816056;29;20238;-57
2023/04/28 11:43:55;;;;;;;8.73;6.90;;;14.80;99.90;;;;;;4815159;29;20255;-57
2023/04/28 11:46:25;;;;;;;8.57;6.40;;;14.70;99.90;;;;;;4811437;29;20232;-56
2023/04/28 11:49:04;;;;;;;9.77;6.30;;;14.60;99.90;;;;;;4813861;29;20236;-57
2023/04/28 11:51:37;;;;;;;9.50;5.70;;;14.50;99.90;;;;;;4813519;29;20256;-57
2023/04/28 11:54:10;;;;;;;9.30;6.07;;;14.50;99.90;;;;;;4812647;29;20704;-54
2023/04/28 11:56:40;;;;;;;6.43;5.63;;;14.50;99.90;;;;;;4809826;29;20326;-57
2023/04/28 11:59:10;;;;;;;10.47;6.43;;;14.50;99.90;;;;;;4812932;29;20338;-58
2023/04/28 12:01:49;;;;;;;8.87;5.93;;;14.50;99.90;;;;;;4812803;29;20585;-58
2023/04/28 12:04:29;;;;;;;10.87;6.03;;;14.50;99.90;;;;;;4813685;29;20246;-58
2023/04/28 12:07:02;;;;;;;7.33;5.53;;;14.60;99.90;;;;;;4811080;29;20752;-58
2023/04/28 12:09:31;;;;;;;9.17;5.97;;;14.50;99.90;;;;;;4813597;29;20232;-58
2023/04/28 12:12:03;;;;;;;9.50;5.83;;;14.60;99.90;;;;;;4813528;29;20733;-58
2023/04/28 12:14:34;;;;;;;10.23;5.33;;;14.40;99.90;;;;;;4813300;29;20728;-56
2023/04/28 12:17:03;;;;;;;6.80;5.47;;;14.50;99.90;;;;;;4810563;29;20254;-57
2023/04/28 12:19:44;;;;;;;8.73;5.10;;;14.60;99.90;;;;;;4812844;29;20614;-58
2023/04/28 12:22:16;;;;;;;8.10;5.60;;;14.60;99.90;;;;;;4813134;29;20240;-57
2023/04/28 12:24:45;;;;;;;10.83;6.53;;;14.50;99.90;;;;;;4813229;29;20247;-57
2023/04/28 12:27:16;;;;;;;7.30;5.47;;;14.50;99.90;;;;;;4810907;29;20240;-56
2023/04/28 12:29:45;;;;;;;11.87;6.30;;;14.50;99.90;;;;;;4812682;29;20231;-56
2023/04/28 12:32:15;;;;;;;12.13;7.50;;;14.50;99.90;;;;;;4813031;29;20243;-57
2023/04/28 12:34:45;;;;;;;9.30;5.40;;;14.40;99.90;;;;;;4812804;29;20235;-58
2023/04/28 12:37:14;;;;;;;6.67;4.90;;;14.30;99.90;;;;;;4811166;29;20292;-57
2023/04/28 12:39:42;;;;;;;8.03;5.33;;;14.30;99.90;;;;;;4812396;29;20845;-54
2023/04/28 12:42:11;;;;;;;8.30;4.80;;;14.10;99.90;;;;;;4812620;29;20279;-55
2023/04/28 12:44:41;;;;;;;8.80;5.20;;;14.20;99.90;;;;;;4812850;29;20228;-57
2023/04/28 12:47:10;;;;;;;10.27;5.03;;;14.20;99.90;;;;;;4810710;29;20318;-57
2023/04/28 12:49:40;;;;;;;10.97;5.13;;;14.20;99.90;;;;;;4811731;29;20232;-57
2023/04/28 12:52:08;;;;;;;8.27;4.80;;;14.20;99.90;;;;;;4812908;29;20228;-58
2023/04/28 12:54:37;;;;;;;6.70;5.07;;;14.20;99.90;;;;;;4811736;29;20228;-56
2023/04/28 12:57:05;;;;;;;8.77;5.40;;;14.00;99.90;;;;;;4810762;29;21162;-55
2023/04/28 12:59:33;;;;;;;6.27;4.73;;;14.00;99.90;;;;;;4813051;29;20235;-57
2023/04/28 13:02:03;;;;;;;7.77;5.17;;;13.90;99.90;;;;;;4812033;29;20297;-55
2023/04/28 13:04:31;;;;;;;8.97;5.23;;;13.80;99.90;;;;;;4812967;29;20327;-58